METAR Data
IDs: Format: Raw Decoded Include TAF

Data at: 1457 UTC 21 Apr 2021

METAR for:KCID (Cedar Rapids/E Iowao, IA, US)
Text:KCID 211452Z 35007KT 10SM BKN070 OVC085 05/M07 A3017 RMK AO2 SLP223 T00501072 51008
Temperature: 5.0°C ( 41°F)
Dewpoint: -7.2°C ( 19°F) [RH = 41%]
Pressure (altimeter):30.17 inches Hg (1021.8 mb) [Sea level pressure: 1022.3 mb]
Winds:from the N (350 degrees) at 8 MPH (7 knots; 3.6 m/s)
Visibility:10 or more sm (16+ km)
Ceiling:7000 feet AGL
Clouds: broken clouds at 7000 feet AGL, overcast cloud deck at 8500 feet AGL